Time;durP1;ratioP1;P1;durP2;ratioP2;P2;SDS_P1;SDS_P2;PMS_P1;PMS_P2;Temp;Humidity;BMP_temperature;BMP_pressure;BME280_temperature;BME280_humidity;BME280_pressure;Samples;Min_cycle;Max_cycle;Signal;HPM_P1;HPM_P2
2021/12/12 00:00:27;;;;;;;;;16.75;14.00;;;;;10.27;64.03;101907.53;5079181;28;45386;-69
2021/12/12 00:02:58;;;;;;;;;20.50;13.25;;;;;10.27;63.97;101903.06;5078754;28;45434;-69
2021/12/12 00:05:52;;;;;;;;;16.75;16.00;;;;;10.30;64.34;101902.16;5079495;28;45775;-69
2021/12/12 00:08:19;;;;;;;;;13.50;13.25;;;;;10.22;64.46;101888.88;5064344;28;45440;-69
2021/12/12 00:10:50;;;;;;;;;15.50;13.75;;;;;10.24;63.97;101896.88;5079004;28;45391;-69
2021/12/12 00:13:23;;;;;;;;;17.00;15.25;;;;;10.14;64.75;101878.34;5077185;28;46203;-69
2021/12/12 00:15:48;;;;;;;;;17.50;15.00;;;;;10.17;64.69;101885.41;5079453;28;45646;-69
2021/12/12 00:18:14;;;;;;;;;15.00;11.50;;;;;10.16;65.13;101887.19;5082741;28;45438;-69
2021/12/12 00:20:39;;;;;;;;;16.00;14.75;;;;;10.16;64.97;101884.53;5082097;27;45244;-68
2021/12/12 00:23:08;;;;;;;;;15.75;14.00;;;;;10.17;64.95;101888.06;5082757;28;45328;-69
2021/12/12 00:25:38;;;;;;;;;12.25;11.50;;;;;10.18;64.62;101876.50;5082469;27;45583;-69
2021/12/12 00:28:05;;;;;;;;;16.50;15.00;;;;;10.09;65.24;101863.25;5082771;28;45232;-69
2021/12/12 00:30:30;;;;;;;;;13.50;12.00;;;;;10.09;65.34;101864.16;5082391;28;45384;-69
2021/12/12 00:32:56;;;;;;;;;17.50;15.00;;;;;10.15;65.23;101873.88;5081654;28;46161;-69
2021/12/12 00:35:22;;;;;;;;;15.25;14.25;;;;;10.14;65.67;101880.09;5082365;27;45298;-69
2021/12/12 00:37:54;;;;;;;;;14.00;11.25;;;;;10.16;65.67;101883.66;5082528;27;45251;-69
2021/12/12 00:40:38;;;;;;;;;16.50;13.50;;;;;10.14;65.34;101889.00;5081951;28;45228;-69
2021/12/12 00:43:14;;;;;;;;;16.75;14.50;;;;;10.07;66.00;101867.75;5081918;28;46265;-69
2021/12/12 00:45:40;;;;;;;;;18.25;12.50;;;;;10.08;66.17;101873.06;5070130;27;45529;-69
2021/12/12 00:48:06;;;;;;;;;14.75;13.50;;;;;10.09;65.97;101885.50;5082178;28;45282;-68
2021/12/12 00:50:36;;;;;;;;;14.00;12.75;;;;;10.04;65.78;101882.00;5081886;27;45450;-69
2021/12/12 00:53:04;;;;;;;;;9.50;8.50;;;;;10.06;66.51;101884.66;5081599;28;46104;-69
2021/12/12 00:55:30;;;;;;;;;17.25;14.25;;;;;10.04;66.65;101870.44;5082090;28;45335;-69
2021/12/12 00:57:56;;;;;;;;;16.50;13.50;;;;;10.09;65.84;101876.59;5082131;27;45357;-68
2021/12/12 01:00:25;;;;;;;;;13.00;13.00;;;;;10.10;66.15;101871.25;5082073;28;45209;-68
2021/12/12 01:02:53;;;;;;;;;15.75;13.00;;;;;10.12;66.23;101876.56;5081423;27;45312;-69
2021/12/12 01:05:19;;;;;;;;;12.00;12.00;;;;;10.15;66.59;101877.41;5082024;28;45417;-69
2021/12/12 01:07:46;;;;;;;;;16.75;13.75;;;;;10.19;66.15;101875.63;5081899;28;45248;-69
2021/12/12 01:10:27;;;;;;;;;14.25;13.00;;;;;10.19;66.17;101867.59;5081536;28;45516;-68
2021/12/12 01:12:56;;;;;;;;;14.25;11.00;;;;;10.20;66.17;101869.34;5081252;28;46284;-68
2021/12/12 01:15:38;;;;;;;;;12.25;11.50;;;;;10.23;66.74;101861.31;5081731;28;45525;-68
2021/12/12 01:18:08;;;;;;;;;10.00;9.25;;;;;10.22;66.71;101856.88;5081895;28;45298;-69
2021/12/12 01:20:38;;;;;;;;;10.00;10.00;;;;;10.25;66.67;101867.50;5081679;28;45572;-69
2021/12/12 01:23:39;;;;;;;;;11.00;10.50;;;;;10.26;66.57;101857.75;5081610;27;45347;-68
2021/12/12 01:26:07;;;;;;;;;11.50;11.25;;;;;10.29;66.19;101863.00;5078819;27;45675;-69
2021/12/12 01:28:36;;;;;;;;;10.25;10.00;;;;;10.31;66.36;101866.56;5081615;28;45411;-69
2021/12/12 01:31:05;;;;;;;;;11.00;9.50;;;;;10.31;66.62;101864.75;5076840;28;45661;-68
2021/12/12 01:33:33;;;;;;;;;10.00;9.75;;;;;10.31;66.71;101867.44;5078086;28;45514;-69
2021/12/12 01:36:04;;;;;;;;;11.00;10.75;;;;;10.29;66.37;101868.34;5081500;28;45560;-68
2021/12/12 01:41:15;;;;;;;;;10.00;8.00;;;;;10.29;66.52;101874.59;5074876;28;45330;-68
2021/12/12 01:43:45;;;;;;;;;10.25;9.25;;;;;10.28;66.61;101877.28;5080790;28;46283;-68
2021/12/12 01:46:24;;;;;;;;;10.00;10.00;;;;;10.24;67.32;101872.84;5081357;27;45465;-68
2021/12/12 01:48:58;;;;;;;;;9.00;9.00;;;;;10.25;67.18;101886.19;5068735;28;45442;-68
2021/12/12 01:51:26;;;;;;;;;8.50;8.50;;;;;10.23;67.14;101881.78;5080995;28;45230;-68
2021/12/12 01:53:55;;;;;;;;;8.50;5.50;;;;;10.30;67.10;101888.81;5080965;28;46210;-68
2021/12/12 01:56:27;;;;;;;;;8.25;7.00;;;;;10.26;67.48;101877.28;5081037;28;45169;-68
2021/12/12 01:58:58;;;;;;;;;9.50;8.00;;;;;10.29;67.45;101890.59;5081327;28;45340;-69
2021/12/12 02:01:36;;;;;;;;;6.00;6.00;;;;;10.30;67.51;101886.13;5081063;28;45317;-68
2021/12/12 02:04:08;;;;;;;;;8.75;8.75;;;;;10.28;67.02;101893.28;5073387;28;47005;-68
2021/12/12 02:06:34;;;;;;;;;7.00;7.00;;;;;10.30;67.26;101896.81;5068455;28;45482;-69
2021/12/12 02:09:00;;;;;;;;;10.25;8.75;;;;;10.28;67.57;101891.50;5080999;28;45352;-68
2021/12/12 02:11:30;;;;;;;;;8.25;6.50;;;;;10.29;67.46;101890.59;5080601;28;45685;-68
2021/12/12 02:14:02;;;;;;;;;5.75;5.75;;;;;10.34;67.58;101901.22;5080569;28;45437;-69
2021/12/12 02:16:28;;;;;;;;;9.75;9.00;;;;;10.32;67.57;101898.59;5080787;28;45597;-69
2021/12/12 02:18:57;;;;;;;;;9.00;7.00;;;;;10.39;67.54;101904.75;5080653;27;45461;-69
2021/12/12 02:21:31;;;;;;;;;6.75;6.75;;;;;10.42;67.58;101911.81;5080766;28;45505;-69
2021/12/12 02:37:36;;;;;;;;;5.75;5.75;;;;;10.44;67.56;101912.66;5080445;27;45592;-69
2021/12/12 02:40:08;;;;;;;;;8.50;6.25;;;;;10.49;67.59;101916.16;5079725;28;45236;-69
2021/12/12 02:42:34;;;;;;;;;8.50;7.50;;;;;10.50;67.36;101916.13;5080172;28;45413;-68
2021/12/12 02:45:03;;;;;;;;;5.50;5.50;;;;;10.55;67.86;101918.75;5079953;27;45540;-69
2021/12/12 02:47:35;;;;;;;;;6.00;5.50;;;;;10.49;67.92;101910.81;5080330;28;45308;-69
2021/12/12 02:50:13;;;;;;;;;6.25;6.25;;;;;10.48;67.56;101911.75;5080396;27;45324;-69
2021/12/12 02:52:45;;;;;;;;;6.50;5.25;;;;;10.57;67.73;101928.53;5079840;28;45447;-69
2021/12/12 02:55:16;;;;;;;;;7.75;5.50;;;;;10.57;67.70;101924.94;5080176;28;46149;-69
2021/12/12 02:57:42;;;;;;;;;8.00;6.50;;;;;10.53;67.98;101925.91;5080226;27;45450;-69
2021/12/12 03:00:12;;;;;;;;;8.00;6.00;;;;;10.55;67.57;101916.09;5080623;28;45185;-69
2021/12/12 03:02:45;;;;;;;;;4.75;4.75;;;;;10.57;67.82;101927.63;5079543;27;45413;-69
2021/12/12 03:05:13;;;;;;;;;5.25;5.25;;;;;10.59;67.90;101928.47;5080364;28;46217;-69
2021/12/12 03:07:39;;;;;;;;;7.50;6.25;;;;;10.61;67.57;101928.47;5079878;28;45445;-69
2021/12/12 03:10:10;;;;;;;;;6.25;6.25;;;;;10.61;68.05;101924.03;5079908;28;45184;-69
2021/12/12 03:12:36;;;;;;;;;5.50;5.00;;;;;10.64;68.22;101933.75;5079623;27;45322;-69
2021/12/12 03:15:26;;;;;;;;;5.00;5.00;;;;;10.61;68.09;101929.38;5079835;28;45465;-69
2021/12/12 03:17:55;;;;;;;;;5.75;5.75;;;;;10.66;67.76;101935.53;5066464;28;45451;-69
2021/12/12 03:20:26;;;;;;;;;5.75;5.50;;;;;10.67;67.83;101931.06;5080020;28;45295;-68
2021/12/12 03:22:57;;;;;;;;;7.00;5.50;;;;;10.67;67.97;101931.94;5080120;28;45493;-68
2021/12/12 03:25:22;;;;;;;;;3.00;3.00;;;;;10.65;68.22;101925.72;5079549;27;45334;-68
2021/12/12 03:27:49;;;;;;;;;1.75;1.75;;;;;10.64;68.20;101926.66;5080081;28;45405;-68
2021/12/12 03:30:15;;;;;;;;;4.25;4.25;;;;;10.69;67.91;101932.81;5079935;28;45260;-69
2021/12/12 03:32:41;;;;;;;;;4.75;4.25;;;;;10.70;68.23;101929.22;5079426;28;45280;-69
2021/12/12 03:35:07;;;;;;;;;4.00;4.00;;;;;10.69;67.77;101927.47;5079440;27;46055;-69
2021/12/12 03:37:33;;;;;;;;;4.00;4.00;;;;;10.69;67.65;101927.47;5079967;28;45220;-69
2021/12/12 03:40:04;;;;;;;;;4.75;4.75;;;;;10.73;67.89;101933.66;5065716;28;45573;-69
2021/12/12 03:42:30;;;;;;;;;5.00;5.00;;;;;10.65;68.14;101924.84;5079425;28;45399;-69
2021/12/12 03:44:58;;;;;;;;;4.00;3.00;;;;;10.75;67.54;101938.06;5060274;27;48428;-69
2021/12/12 03:47:43;;;;;;;;;5.00;5.00;;;;;10.73;67.93;101941.66;5079554;28;45307;-69
2021/12/12 03:50:14;;;;;;;;;3.25;3.25;;;;;10.71;68.60;101939.00;5079573;28;45401;-69
2021/12/12 03:52:40;;;;;;;;;1.00;1.00;;;;;10.68;68.03;101933.72;5074823;28;45251;-69
2021/12/12 03:55:07;;;;;;;;;5.25;4.25;;;;;10.62;68.46;101925.78;5082867;28;45334;-69
2021/12/12 03:57:33;;;;;;;;;4.25;4.25;;;;;10.66;68.34;101939.97;5083221;28;45542;-69
2021/12/12 04:00:00;;;;;;;;;6.50;6.25;;;;;10.59;68.28;101917.78;5083179;27;45477;-69
2021/12/12 04:02:27;;;;;;;;;4.25;4.25;;;;;10.71;68.04;101939.00;5082106;27;45350;-69
2021/12/12 04:04:53;;;;;;;;;5.00;5.00;;;;;10.68;68.05;101930.16;5082725;28;45381;-69
2021/12/12 04:07:26;;;;;;;;;7.25;5.00;;;;;10.71;68.75;101935.47;5082771;27;45331;-69
2021/12/12 04:09:53;;;;;;;;;6.00;6.00;;;;;10.71;68.79;101924.78;5082525;27;45476;-69
2021/12/12 04:12:21;;;;;;;;;5.75;5.25;;;;;10.66;68.65;101930.19;5081481;27;45543;-69
2021/12/12 04:14:48;;;;;;;;;6.00;6.00;;;;;10.70;68.49;101939.03;5082791;28;45519;-69
2021/12/12 04:17:19;;;;;;;;;7.25;5.50;;;;;10.73;68.23;101936.31;5082481;27;45519;-69
2021/12/12 04:19:47;;;;;;;;;5.25;4.75;;;;;10.72;68.56;101937.22;5083139;28;45386;-69
2021/12/12 04:22:12;;;;;;;;;5.25;5.25;;;;;10.75;68.54;101946.06;5082521;27;45583;-69
2021/12/12 04:24:42;;;;;;;;;4.25;4.25;;;;;10.69;68.26;101938.16;5082630;28;46158;-69
2021/12/12 04:27:08;;;;;;;;;5.75;5.75;;;;;10.78;68.42;101947.81;5082354;28;45427;-69
2021/12/12 04:29:40;;;;;;;;;9.50;8.75;;;;;10.82;68.63;101951.31;5082728;28;45515;-69
2021/12/12 04:32:11;;;;;;;;;8.50;7.00;;;;;10.81;68.66;101949.53;5081781;28;45307;-69
2021/12/12 04:34:43;;;;;;;;;6.50;6.50;;;;;10.84;68.70;101957.53;5082335;28;46327;-69
2021/12/12 04:37:09;;;;;;;;;10.00;10.00;;;;;10.81;68.55;101958.47;5069289;28;45335;-69
2021/12/12 04:39:38;;;;;;;;;9.75;7.75;;;;;10.83;68.47;101967.34;5082166;28;45289;-69
2021/12/12 04:42:09;;;;;;;;;4.75;4.75;;;;;10.81;68.69;101947.78;5082236;28;45292;-69
2021/12/12 04:44:37;;;;;;;;;10.25;7.25;;;;;10.90;68.34;101968.13;5061460;28;48441;-69
2021/12/12 04:50:20;;;;;;;;;9.00;6.50;;;;;10.91;68.04;101960.09;5082215;27;45346;-69
2021/12/12 04:52:58;;;;;;;;;10.50;10.25;;;;;10.89;68.68;101963.69;5075103;28;45346;-69
2021/12/12 04:55:37;;;;;;;;;8.25;8.25;;;;;10.86;68.44;101966.38;5082144;27;46274;-69
2021/12/12 04:58:35;;;;;;;;;9.75;9.00;;;;;10.89;68.43;101966.34;5082059;28;45325;-69
2021/12/12 05:01:09;;;;;;;;;11.25;9.50;;;;;10.86;68.44;101963.72;5062539;28;45351;-69
2021/12/12 05:04:00;;;;;;;;;12.00;9.00;;;;;10.94;68.45;101976.09;5081401;28;45245;-69
2021/12/12 05:06:28;;;;;;;;;9.25;9.00;;;;;10.96;68.36;101976.06;5081805;28;45489;-69
2021/12/12 05:09:06;;;;;;;;;10.00;9.00;;;;;10.97;68.61;101987.63;5082033;28;45623;-69
2021/12/12 05:11:42;;;;;;;;;10.00;9.50;;;;;10.87;68.66;101984.19;5078491;27;45390;-68
2021/12/12 05:14:12;;;;;;;;;14.50;11.50;;;;;10.89;68.45;101974.38;5081703;28;45442;-69
2021/12/12 05:16:44;;;;;;;;;11.75;10.50;;;;;10.85;69.09;101980.66;5081764;28;45320;-69
2021/12/12 05:19:17;;;;;;;;;11.00;10.75;;;;;10.84;68.71;101977.13;5081598;28;45624;-69
2021/12/12 05:21:50;;;;;;;;;11.50;11.00;;;;;10.89;68.35;101983.28;5081892;28;45387;-69
2021/12/12 05:24:19;;;;;;;;;10.75;10.25;;;;;10.81;69.03;101963.81;5068280;28;45767;-69
2021/12/12 05:26:56;;;;;;;;;12.25;11.25;;;;;10.91;69.17;101981.47;5081463;27;45354;-69
2021/12/12 05:29:54;;;;;;;;;12.00;12.00;;;;;10.93;68.69;101989.47;5054651;28;46059;-68
2021/12/12 05:32:21;;;;;;;;;13.50;10.75;;;;;10.84;69.10;101971.78;5080220;27;45224;-69
2021/12/12 05:34:49;;;;;;;;;11.00;10.00;;;;;10.94;68.77;101994.78;5081409;28;45311;-69
2021/12/12 05:37:17;;;;;;;;;11.25;11.25;;;;;10.95;68.71;101993.00;5068382;28;45349;-69
2021/12/12 05:39:43;;;;;;;;;12.25;10.00;;;;;10.98;68.82;101992.06;5080988;27;45701;-68
2021/12/12 05:42:10;;;;;;;;;11.25;10.75;;;;;10.98;69.15;102000.09;5081496;28;45383;-69
2021/12/12 05:44:36;;;;;;;;;12.25;12.00;;;;;11.00;68.85;102001.81;5081184;28;45433;-69
2021/12/12 05:47:05;;;;;;;;;13.50;11.25;;;;;11.01;69.22;102000.94;5080938;28;45288;-69
2021/12/12 05:49:32;;;;;;;;;15.50;12.75;;;;;11.01;68.81;101998.25;5081215;28;45350;-69
2021/12/12 05:52:00;;;;;;;;;14.25;12.25;;;;;11.03;69.10;102000.91;5080832;27;45177;-69
2021/12/12 05:54:28;;;;;;;;;13.00;13.00;;;;;10.98;68.78;102000.09;5080729;27;45399;-68
2021/12/12 05:56:54;;;;;;;;;16.50;11.25;;;;;11.01;69.48;102008.94;5081128;28;45401;-69
2021/12/12 05:59:20;;;;;;;;;15.00;11.00;;;;;11.02;69.32;102009.81;5081023;28;45379;-68
2021/12/12 06:01:46;;;;;;;;;12.75;8.50;;;;;11.02;69.25;102008.03;5081063;28;45402;-69
2021/12/12 06:04:11;;;;;;;;;11.50;11.50;;;;;11.01;69.05;102008.94;5080736;28;45489;-69
2021/12/12 06:06:40;;;;;;;;;10.75;10.75;;;;;11.05;69.24;102016.00;5081147;27;45298;-69
2021/12/12 06:09:08;;;;;;;;;16.75;14.00;;;;;11.07;69.27;102018.66;5080578;28;45779;-69
2021/12/12 06:11:41;;;;;;;;;9.75;9.00;;;;;11.09;69.11;102016.84;5080736;28;45499;-68
2021/12/12 06:14:07;;;;;;;;;12.50;12.50;;;;;11.09;68.96;102014.16;5079629;27;45389;-68
2021/12/12 06:16:35;;;;;;;;;13.25;11.25;;;;;11.05;69.25;102015.13;5080916;28;46066;-69
2021/12/12 06:19:05;;;;;;;;;12.50;11.75;;;;;10.99;69.62;102016.06;5080391;28;45593;-69
2021/12/12 06:21:30;;;;;;;;;14.50;13.25;;;;;11.02;69.30;102026.72;5080880;28;45423;-69
2021/12/12 06:23:58;;;;;;;;;11.50;7.50;;;;;11.02;69.06;102031.19;5080581;28;45299;-69
2021/12/12 06:26:23;;;;;;;;;10.50;9.00;;;;;11.08;69.17;102040.00;5080395;28;45434;-69
2021/12/12 06:28:50;;;;;;;;;13.25;12.00;;;;;11.09;69.05;102032.88;5080461;28;45314;-69
2021/12/12 06:31:16;;;;;;;;;12.50;11.50;;;;;11.07;69.61;102032.88;5079226;28;45338;-69
2021/12/12 06:33:42;;;;;;;;;10.75;10.25;;;;;11.00;69.26;102025.00;5080009;28;45338;-69
2021/12/12 06:36:10;;;;;;;;;12.25;11.25;;;;;11.03;69.25;102035.66;5062297;28;47136;-69
2021/12/12 06:38:39;;;;;;;;;11.50;11.50;;;;;11.06;69.42;102043.59;5080352;27;45638;-69
2021/12/12 06:41:06;;;;;;;;;12.50;10.75;;;;;11.09;69.29;102043.56;5080428;28;45353;-69
2021/12/12 06:43:34;;;;;;;;;11.50;10.50;;;;;11.12;69.80;102049.75;5080425;28;45761;-69
2021/12/12 06:46:02;;;;;;;;;10.75;9.00;;;;;11.12;69.20;102039.06;5062139;28;47353;-69
2021/12/12 06:48:28;;;;;;;;;15.75;11.00;;;;;11.11;69.38;102041.78;5079989;28;45320;-69
2021/12/12 06:50:56;;;;;;;;;12.50;10.50;;;;;11.12;69.34;102044.38;5080252;28;45408;-69
2021/12/12 06:53:25;;;;;;;;;11.50;10.50;;;;;11.15;69.56;102047.94;5061346;28;45442;-69
2021/12/12 06:55:52;;;;;;;;;9.25;8.25;;;;;11.16;69.50;102050.59;5071699;28;46520;-69
2021/12/12 06:58:20;;;;;;;;;12.25;10.00;;;;;11.20;69.80;102060.34;5080081;28;45627;-69
2021/12/12 07:00:51;;;;;;;;;14.25;11.50;;;;;11.19;69.67;102055.88;5080370;28;45401;-69
2021/12/12 07:03:18;;;;;;;;;11.25;9.00;;;;;11.23;69.33;102067.44;5079863;28;45441;-69
2021/12/12 07:05:44;;;;;;;;;9.75;8.25;;;;;11.17;69.48;102054.16;5080152;28;45268;-69
2021/12/12 07:08:10;;;;;;;;;11.75;10.50;;;;;11.25;69.57;102068.28;5079923;28;45346;-69
2021/12/12 07:10:36;;;;;;;;;8.25;7.25;;;;;11.18;69.63;102064.81;5079983;28;46584;-69
2021/12/12 07:13:02;;;;;;;;;7.50;7.50;;;;;11.22;69.70;102076.34;5079930;28;45453;-69
2021/12/12 07:15:47;;;;;;;;;11.25;11.25;;;;;11.24;69.77;102085.22;5080067;28;45335;-69
2021/12/12 07:18:16;;;;;;;;;9.50;8.00;;;;;11.15;69.62;102072.00;5069023;28;45488;-69
2021/12/12 07:20:43;;;;;;;;;12.75;11.25;;;;;11.23;69.55;102089.69;5080023;28;45369;-69
2021/12/12 07:23:11;;;;;;;;;14.50;10.75;;;;;11.24;69.95;102077.22;5061887;28;45464;-69
2021/12/12 07:25:39;;;;;;;;;11.00;11.00;;;;;11.28;69.94;102081.63;5081142;27;45334;-69
2021/12/12 07:28:06;;;;;;;;;9.00;7.75;;;;;11.32;69.93;102086.00;5083370;28;45645;-69
2021/12/12 07:30:31;;;;;;;;;8.50;7.25;;;;;11.26;69.64;102076.28;5083409;28;45524;-69
2021/12/12 07:32:58;;;;;;;;;10.00;9.00;;;;;11.34;69.50;102091.34;5082903;27;45955;-69
2021/12/12 07:35:25;;;;;;;;;7.25;7.25;;;;;11.32;70.04;102083.34;5083169;28;45313;-69
2021/12/12 07:37:52;;;;;;;;;8.00;7.00;;;;;11.25;70.02;102073.66;5083562;28;45541;-69
2021/12/12 07:40:20;;;;;;;;;8.00;7.75;;;;;11.26;70.17;102078.06;5082941;27;45473;-69
2021/12/12 07:42:46;;;;;;;;;10.00;10.00;;;;;11.33;69.86;102093.13;5083364;28;45416;-69
2021/12/12 07:45:13;;;;;;;;;10.50;9.25;;;;;11.33;69.98;102093.13;5082616;28;46057;-69
2021/12/12 07:47:39;;;;;;;;;8.25;8.00;;;;;11.31;70.12;102102.97;5083045;28;45318;-69
2021/12/12 07:50:08;;;;;;;;;10.00;9.25;;;;;11.35;70.24;102109.16;5082738;28;45370;-69
2021/12/12 07:52:34;;;;;;;;;10.75;6.25;;;;;11.29;70.03;102097.66;5081609;27;45425;-69
2021/12/12 07:55:00;;;;;;;;;9.00;9.00;;;;;11.34;69.87;102102.91;5082823;27;46006;-69
2021/12/12 07:57:29;;;;;;;;;10.75;9.75;;;;;11.30;70.01;102095.84;5082820;28;45331;-69
2021/12/12 07:59:56;;;;;;;;;10.50;9.00;;;;;11.34;69.87;102102.91;5082380;27;45450;-69
2021/12/12 08:02:23;;;;;;;;;9.00;7.25;;;;;11.36;70.49;102106.47;5082295;28;45508;-68
2021/12/12 08:04:50;;;;;;;;;8.75;8.75;;;;;11.37;69.97;102108.22;5085541;27;46630;-71
2021/12/12 08:07:19;;;;;;;;;10.50;6.75;;;;;11.39;70.20;102106.38;5073737;27;45809;-69
2021/12/12 08:09:45;;;;;;;;;11.00;10.00;;;;;11.45;70.18;102105.44;5082227;27;45465;-73
2021/12/12 08:12:14;;;;;;;;;11.00;10.00;;;;;11.44;70.08;102111.69;5079489;28;45434;-73
2021/12/12 08:14:40;;;;;;;;;9.75;9.75;;;;;11.45;69.94;102113.47;5081029;27;46306;-73
2021/12/12 08:17:07;;;;;;;;;11.25;10.00;;;;;11.45;70.30;102118.81;5063074;28;45581;-73
2021/12/12 08:19:33;;;;;;;;;9.25;8.50;;;;;11.45;70.43;102119.69;5079666;27;45497;-72
2021/12/12 08:22:07;;;;;;;;;9.25;9.00;;;;;11.43;70.04;102112.59;5080092;28;45499;-71
2021/12/12 08:24:34;;;;;;;;;9.75;9.00;;;;;11.46;70.20;102117.88;5060836;28;46285;-72
2021/12/12 08:27:00;;;;;;;;;8.50;8.50;;;;;11.44;70.33;102107.25;5080162;28;45760;-72
2021/12/12 08:29:29;;;;;;;;;10.25;8.00;;;;;11.48;70.10;102111.63;5078174;28;45515;-72
2021/12/12 08:31:55;;;;;;;;;11.25;9.75;;;;;11.49;70.00;102120.53;5080293;27;45552;-72
2021/12/12 08:34:20;;;;;;;;;9.00;8.75;;;;;11.48;69.83;102118.78;5079555;27;46210;-71
2021/12/12 08:36:50;;;;;;;;;9.00;6.25;;;;;11.52;70.36;102127.63;5079350;27;45414;-72
2021/12/12 08:39:17;;;;;;;;;5.50;5.50;;;;;11.56;70.35;102132.00;5078230;28;45454;-73
2021/12/12 08:41:46;;;;;;;;;7.00;5.75;;;;;11.56;70.33;102127.56;5079872;28;45449;-72
2021/12/12 08:44:13;;;;;;;;;9.25;7.75;;;;;11.59;70.03;102123.94;5060523;28;45555;-73
2021/12/12 08:46:42;;;;;;;;;6.50;6.50;;;;;11.59;70.22;102129.31;5079106;27;45549;-74
2021/12/12 08:49:08;;;;;;;;;11.25;8.50;;;;;11.62;70.08;102140.84;5080074;28;45410;-73
2021/12/12 08:51:37;;;;;;;;;10.25;9.50;;;;;11.64;70.31;102138.13;5085834;27;45457;-73
2021/12/12 08:54:14;;;;;;;;;6.00;6.00;;;;;11.62;70.10;102129.25;5085237;27;46307;-73
2021/12/12 08:56:45;;;;;;;;;7.75;6.00;;;;;11.64;70.05;102138.13;5091046;27;45450;-74
2021/12/12 08:59:15;;;;;;;;;10.50;5.25;;;;;11.65;70.11;102135.44;5088774;27;45434;-74
2021/12/12 09:01:41;;;;;;;;;7.00;7.00;;;;;11.64;70.34;102135.47;5090658;27;45581;-72
2021/12/12 09:04:08;;;;;;;;;6.00;6.00;;;;;11.68;70.39;102137.22;5089285;27;46683;-73
2021/12/12 09:06:44;;;;;;;;;6.75;5.25;;;;;11.69;70.42;102144.31;5087607;27;45729;-74
2021/12/12 09:09:14;;;;;;;;;11.00;6.00;;;;;11.70;70.13;102145.22;5087939;27;45342;-74
2021/12/12 09:11:49;;;;;;;;;9.25;6.50;;;;;11.73;70.23;102150.50;5058010;28;46178;-71
2021/12/12 09:14:42;;;;;;;;;9.25;7.00;;;;;11.76;70.31;102155.78;5069661;28;45399;-71
2021/12/12 09:17:15;;;;;;;;;10.00;6.50;;;;;11.78;70.50;102159.38;5080344;27;45690;-69
2021/12/12 09:19:48;;;;;;;;;5.75;5.75;;;;;11.75;70.28;102162.06;5064326;28;45411;-71
2021/12/12 09:22:20;;;;;;;;;10.00;6.00;;;;;11.78;70.40;102168.25;5080230;28;45304;-70
2021/12/12 09:24:56;;;;;;;;;5.75;5.75;;;;;11.79;70.25;102159.31;5080372;27;46435;-70
2021/12/12 09:27:34;;;;;;;;;9.00;9.00;;;;;11.81;70.40;102161.97;5081161;28;45528;-72
2021/12/12 09:30:13;;;;;;;;;9.25;8.50;;;;;11.75;70.40;102154.94;5080864;27;45390;-72
2021/12/12 09:32:52;;;;;;;;;8.50;7.00;;;;;11.81;70.42;102162.88;5081119;27;45259;-72
2021/12/12 09:35:26;;;;;;;;;7.00;7.00;;;;;11.81;70.56;102160.19;5081429;28;47464;-70
2021/12/12 09:38:12;;;;;;;;;7.75;7.00;;;;;11.81;70.39;102157.53;5081526;28;45559;-70
2021/12/12 09:40:56;;;;;;;;;8.50;8.50;;;;;11.74;70.39;102138.91;5080907;28;45301;-69
2021/12/12 09:44:14;;;;;;;;;6.00;6.00;;;;;11.78;70.53;102149.53;5080046;28;45511;-70
2021/12/12 09:53:23;;;;;;;;;5.75;5.75;;;;;11.90;70.48;102161.84;5080506;28;45378;-73
2021/12/12 09:55:57;;;;;;;;;7.25;6.75;;;;;11.90;70.63;102161.84;5070847;28;45442;-72
2021/12/12 09:58:44;;;;;;;;;9.00;8.50;;;;;11.95;70.58;102165.34;5062803;28;48386;-73
2021/12/12 10:01:25;;;;;;;;;9.75;9.75;;;;;11.95;70.93;102160.00;5080976;27;45542;-69
2021/12/12 10:04:08;;;;;;;;;12.00;11.00;;;;;11.95;70.81;102169.84;5068798;28;45411;-69
2021/12/12 10:07:00;;;;;;;;;7.75;6.50;;;;;11.96;70.96;102171.59;5080933;28;45485;-71
2021/12/12 10:09:47;;;;;;;;;9.75;7.75;;;;;11.95;71.15;102154.66;5057665;28;47186;-70
2021/12/12 10:12:18;;;;;;;;;8.25;7.00;;;;;11.97;70.98;102158.19;5076236;27;45415;-71
2021/12/12 10:14:49;;;;;;;;;7.00;7.00;;;;;11.96;70.87;102159.13;5078279;28;45706;-72
2021/12/12 10:17:47;;;;;;;;;5.50;5.50;;;;;12.02;71.36;102169.69;5077942;28;45343;-70
2021/12/12 10:20:20;;;;;;;;;8.50;8.50;;;;;12.00;70.92;102155.47;5060018;28;47388;-71
2021/12/12 10:23:10;;;;;;;;;8.75;8.75;;;;;12.04;70.73;102162.56;5059251;28;45531;-74
2021/12/12 10:25:45;;;;;;;;;12.75;10.00;;;;;12.06;71.17;102165.19;5079656;27;45382;-74
2021/12/12 10:28:21;;;;;;;;;11.50;10.50;;;;;12.04;71.53;102167.91;5080317;28;45452;-75
2021/12/12 10:31:00;;;;;;;;;12.75;12.00;;;;;12.03;71.37;102162.56;5080529;28;46374;-75
2021/12/12 10:33:39;;;;;;;;;12.00;10.25;;;;;12.06;71.49;102170.53;5080085;28;45839;-75
2021/12/12 10:36:13;;;;;;;;;16.50;14.50;;;;;12.04;71.24;102165.22;5080809;28;45394;-75
2021/12/12 10:38:52;;;;;;;;;21.00;16.50;;;;;12.08;71.22;102170.50;5067717;27;45323;-75
2021/12/12 10:41:25;;;;;;;;;16.75;15.25;;;;;12.12;71.22;102173.13;5079659;27;46284;-75
2021/12/12 10:44:02;;;;;;;;;16.75;15.50;;;;;12.09;71.21;102161.59;5079625;28;45556;-75
2021/12/12 10:46:56;;;;;;;;;14.25;12.75;;;;;12.10;71.51;102163.38;5080279;28;45408;-75
2021/12/12 10:49:36;;;;;;;;;12.75;12.75;;;;;12.08;71.49;102165.16;5080262;28;45429;-75
2021/12/12 10:52:10;;;;;;;;;16.25;14.50;;;;;12.17;71.26;102175.72;5061781;28;47080;-75
2021/12/12 10:54:45;;;;;;;;;11.75;11.75;;;;;12.19;71.27;102171.22;5079146;28;45659;-75
2021/12/12 10:57:16;;;;;;;;;16.75;12.50;;;;;12.22;71.48;102172.06;5058802;28;45654;-74
2021/12/12 10:59:51;;;;;;;;;18.25;17.25;;;;;12.22;71.36;102169.38;5060969;28;45504;-74
2021/12/12 11:02:21;;;;;;;;;12.25;10.50;;;;;12.21;71.75;102172.09;5078540;28;47471;-74
2021/12/12 11:04:52;;;;;;;;;13.50;11.25;;;;;12.21;71.63;102173.00;5080366;28;45335;-75
2021/12/12 11:07:28;;;;;;;;;10.50;7.00;;;;;12.17;71.34;102163.22;5080249;27;45269;-75
2021/12/12 11:10:02;;;;;;;;;10.75;10.00;;;;;12.25;71.67;102172.94;5079663;27;45439;-74
2021/12/12 11:12:36;;;;;;;;;16.00;11.75;;;;;12.27;71.66;102173.78;5075322;27;46453;-75
2021/12/12 11:15:05;;;;;;;;;9.00;9.00;;;;;12.28;71.79;102172.88;5072794;27;45528;-75
2021/12/12 11:17:40;;;;;;;;;11.00;11.00;;;;;12.29;71.70;102170.16;5066657;28;45284;-75
2021/12/12 11:20:19;;;;;;;;;12.00;9.75;;;;;12.23;71.44;102165.81;5076076;28;45465;-75
2021/12/12 11:22:59;;;;;;;;;12.75;9.25;;;;;12.27;71.71;102168.44;5068362;28;47131;-75
2021/12/12 11:25:27;;;;;;;;;10.50;10.25;;;;;12.29;71.67;102177.31;5061437;28;45260;-74
2021/12/12 11:28:17;;;;;;;;;15.50;13.75;;;;;12.27;71.79;102177.34;5080011;28;45528;-75
2021/12/12 11:30:50;;;;;;;;;11.25;10.00;;;;;12.25;71.53;102183.66;5050606;28;45991;-75
2021/12/12 11:33:18;;;;;;;;;14.50;12.00;;;;;12.21;71.60;102167.63;5079162;28;47539;-75
2021/12/12 11:35:48;;;;;;;;;11.50;11.50;;;;;12.31;71.77;102183.53;5079852;28;45496;-77
2021/12/12 11:38:35;;;;;;;;;11.75;11.00;;;;;12.35;71.48;102174.56;5043660;28;45419;-75
2021/12/12 11:41:25;;;;;;;;;13.00;12.25;;;;;12.32;71.75;102169.25;5069098;28;46181;-75
2021/12/12 11:44:27;;;;;;;;;17.25;15.50;;;;;12.36;71.83;102176.28;5061823;28;46422;-74
2021/12/12 11:46:59;;;;;;;;;15.00;15.00;;;;;12.38;71.71;102164.66;5077229;28;45879;-75
2021/12/12 11:49:40;;;;;;;;;13.50;12.00;;;;;12.41;71.71;102169.06;5079477;28;45259;-75
2021/12/12 11:52:13;;;;;;;;;11.50;10.25;;;;;12.41;71.66;102172.66;5075334;28;45775;-75
2021/12/12 11:54:45;;;;;;;;;12.25;12.00;;;;;12.41;72.05;102171.75;5078605;28;46424;-75
2021/12/12 11:57:23;;;;;;;;;14.00;13.00;;;;;12.46;71.97;102175.22;5079435;28;45388;-75
2021/12/12 12:00:14;;;;;;;;;13.75;13.00;;;;;12.47;72.19;102177.00;5065914;28;45305;-75
2021/12/12 12:03:00;;;;;;;;;10.75;8.50;;;;;12.48;72.08;102165.41;5078767;28;45473;-75